sensor_id;sensor_type;location;lat;lon;timestamp;temperature;humidity
42715;DHT22;28351;51.480;5.706;2023-05-06T00:00:27;11.90;99.90
42715;DHT22;28351;51.480;5.706;2023-05-06T00:02:53;11.90;99.90
42715;DHT22;28351;51.480;5.706;2023-05-06T00:05:19;11.90;99.90
42715;DHT22;28351;51.480;5.706;2023-05-06T00:07:45;11.90;99.90
42715;DHT22;28351;51.480;5.706;2023-05-06T00:10:11;11.80;99.90
42715;DHT22;28351;51.480;5.706;2023-05-06T00:12:37;11.70;99.90
42715;DHT22;28351;51.480;5.706;2023-05-06T00:15:03;11.70;99.90
42715;DHT22;28351;51.480;5.706;2023-05-06T00:17:28;11.60;99.90
42715;DHT22;28351;51.480;5.706;2023-05-06T00:19:54;11.60;99.90
42715;DHT22;28351;51.480;5.706;2023-05-06T00:22:20;11.50;99.90
42715;DHT22;28351;51.480;5.706;2023-05-06T00:24:46;11.50;99.90
42715;DHT22;28351;51.480;5.706;2023-05-06T00:27:12;11.40;99.90
42715;DHT22;28351;51.480;5.706;2023-05-06T00:29:38;11.30;99.90
42715;DHT22;28351;51.480;5.706;2023-05-06T00:32:03;11.30;99.90
42715;DHT22;28351;51.480;5.706;2023-05-06T00:34:29;11.30;99.90
42715;DHT22;28351;51.480;5.706;2023-05-06T00:36:55;11.20;99.90
42715;DHT22;28351;51.480;5.706;2023-05-06T00:39:20;11.10;99.90
42715;DHT22;28351;51.480;5.706;2023-05-06T00:41:49;11.10;99.90
42715;DHT22;28351;51.480;5.706;2023-05-06T00:44:15;11.10;99.90
42715;DHT22;28351;51.480;5.706;2023-05-06T00:46:41;11.10;99.90
42715;DHT22;28351;51.480;5.706;2023-05-06T00:49:08;11.00;99.90
42715;DHT22;28351;51.480;5.706;2023-05-06T00:51:35;11.00;99.90
42715;DHT22;28351;51.480;5.706;2023-05-06T00:54:04;10.90;99.90
42715;DHT22;28351;51.480;5.706;2023-05-06T00:56:30;10.90;99.90
42715;DHT22;28351;51.480;5.706;2023-05-06T00:58:55;10.90;99.90
42715;DHT22;28351;51.480;5.706;2023-05-06T01:01:21;10.90;99.90
42715;DHT22;28351;51.480;5.706;2023-05-06T01:03:48;10.80;99.90
42715;DHT22;28351;51.480;5.706;2023-05-06T01:12:11;10.70;99.90
42715;DHT22;28351;51.480;5.706;2023-05-06T01:14:49;10.70;99.90
42715;DHT22;28351;51.480;5.706;2023-05-06T01:17:22;10.60;99.90
42715;DHT22;28351;51.480;5.706;2023-05-06T01:19:51;10.70;99.90
42715;DHT22;28351;51.480;5.706;2023-05-06T01:22:22;10.60;99.90
42715;DHT22;28351;51.480;5.706;2023-05-06T01:24:49;10.60;99.90
42715;DHT22;28351;51.480;5.706;2023-05-06T01:27:14;10.50;99.90
42715;DHT22;28351;51.480;5.706;2023-05-06T01:29:44;10.50;99.90
42715;DHT22;28351;51.480;5.706;2023-05-06T01:40:54;10.30;99.90
42715;DHT22;28351;51.480;5.706;2023-05-06T01:43:26;10.30;99.90
42715;DHT22;28351;51.480;5.706;2023-05-06T01:45:54;10.30;99.90
42715;DHT22;28351;51.480;5.706;2023-05-06T01:48:29;10.20;99.90
42715;DHT22;28351;51.480;5.706;2023-05-06T01:50:56;10.20;99.90
42715;DHT22;28351;51.480;5.706;2023-05-06T01:53:22;10.20;99.90
42715;DHT22;28351;51.480;5.706;2023-05-06T01:55:47;10.20;99.90
42715;DHT22;28351;51.480;5.706;2023-05-06T01:58:14;10.20;99.90
42715;DHT22;28351;51.480;5.706;2023-05-06T02:00:40;10.20;99.90
42715;DHT22;28351;51.480;5.706;2023-05-06T02:03:05;10.20;99.90
42715;DHT22;28351;51.480;5.706;2023-05-06T02:05:31;10.10;99.90
42715;DHT22;28351;51.480;5.706;2023-05-06T02:07:57;10.10;99.90
42715;DHT22;28351;51.480;5.706;2023-05-06T02:10:22;10.10;99.90
42715;DHT22;28351;51.480;5.706;2023-05-06T02:12:48;10.00;99.90
42715;DHT22;28351;51.480;5.706;2023-05-06T02:15:14;10.00;99.90
42715;DHT22;28351;51.480;5.706;2023-05-06T02:17:40;10.00;99.90
42715;DHT22;28351;51.480;5.706;2023-05-06T02:20:06;10.00;99.90
42715;DHT22;28351;51.480;5.706;2023-05-06T02:22:34;9.90;99.90
42715;DHT22;28351;51.480;5.706;2023-05-06T02:24:59;9.90;99.90
42715;DHT22;28351;51.480;5.706;2023-05-06T02:27:25;10.00;99.90
42715;DHT22;28351;51.480;5.706;2023-05-06T02:29:51;9.90;99.90
42715;DHT22;28351;51.480;5.706;2023-05-06T02:32:17;9.90;99.90
42715;DHT22;28351;51.480;5.706;2023-05-06T02:34:42;9.90;99.90
42715;DHT22;28351;51.480;5.706;2023-05-06T02:37:08;9.90;99.90
42715;DHT22;28351;51.480;5.706;2023-05-06T02:39:33;9.80;99.90
42715;DHT22;28351;51.480;5.706;2023-05-06T02:41:59;9.80;99.90
42715;DHT22;28351;51.480;5.706;2023-05-06T02:44:25;9.80;99.90
42715;DHT22;28351;51.480;5.706;2023-05-06T02:46:51;9.80;99.90
42715;DHT22;28351;51.480;5.706;2023-05-06T02:49:16;9.80;99.90
42715;DHT22;28351;51.480;5.706;2023-05-06T02:51:42;9.80;99.90
42715;DHT22;28351;51.480;5.706;2023-05-06T02:54:07;9.70;99.90
42715;DHT22;28351;51.480;5.706;2023-05-06T02:56:33;9.70;99.90
42715;DHT22;28351;51.480;5.706;2023-05-06T02:58:59;9.70;99.90
42715;DHT22;28351;51.480;5.706;2023-05-06T03:01:26;9.70;99.90
42715;DHT22;28351;51.480;5.706;2023-05-06T03:03:51;9.70;99.90
42715;DHT22;28351;51.480;5.706;2023-05-06T03:06:17;9.60;99.90
42715;DHT22;28351;51.480;5.706;2023-05-06T03:08:43;9.60;99.90
42715;DHT22;28351;51.480;5.706;2023-05-06T03:11:08;9.60;99.90
42715;DHT22;28351;51.480;5.706;2023-05-06T03:13:34;9.60;99.90
42715;DHT22;28351;51.480;5.706;2023-05-06T03:16:01;9.60;99.90
42715;DHT22;28351;51.480;5.706;2023-05-06T03:18:26;9.60;99.90
42715;DHT22;28351;51.480;5.706;2023-05-06T03:20:52;9.50;99.90
42715;DHT22;28351;51.480;5.706;2023-05-06T03:23:18;9.50;99.90
42715;DHT22;28351;51.480;5.706;2023-05-06T03:25:43;9.60;99.90
42715;DHT22;28351;51.480;5.706;2023-05-06T03:28:10;9.50;99.90
42715;DHT22;28351;51.480;5.706;2023-05-06T03:30:36;9.50;99.90
42715;DHT22;28351;51.480;5.706;2023-05-06T03:33:01;9.50;99.90
42715;DHT22;28351;51.480;5.706;2023-05-06T03:35:27;9.40;99.90
42715;DHT22;28351;51.480;5.706;2023-05-06T03:37:52;9.50;99.90
42715;DHT22;28351;51.480;5.706;2023-05-06T03:40:18;9.40;99.90
42715;DHT22;28351;51.480;5.706;2023-05-06T03:42:47;9.50;99.90
42715;DHT22;28351;51.480;5.706;2023-05-06T03:45:12;9.40;99.90
42715;DHT22;28351;51.480;5.706;2023-05-06T03:47:38;9.40;99.90
42715;DHT22;28351;51.480;5.706;2023-05-06T03:50:03;9.40;99.90
42715;DHT22;28351;51.480;5.706;2023-05-06T03:52:29;9.40;99.90
42715;DHT22;28351;51.480;5.706;2023-05-06T03:54:55;9.40;99.90
42715;DHT22;28351;51.480;5.706;2023-05-06T03:57:21;9.40;99.90
42715;DHT22;28351;51.480;5.706;2023-05-06T03:59:49;9.50;99.90
42715;DHT22;28351;51.480;5.706;2023-05-06T04:02:15;9.50;99.90
42715;DHT22;28351;51.480;5.706;2023-05-06T04:04:40;9.50;99.90
42715;DHT22;28351;51.480;5.706;2023-05-06T04:07:06;9.40;99.90
42715;DHT22;28351;51.480;5.706;2023-05-06T04:09:34;9.30;99.90
42715;DHT22;28351;51.480;5.706;2023-05-06T04:12:01;9.30;99.90
42715;DHT22;28351;51.480;5.706;2023-05-06T04:14:27;9.30;99.90
42715;DHT22;28351;51.480;5.706;2023-05-06T04:16:53;9.30;99.90
42715;DHT22;28351;51.480;5.706;2023-05-06T04:19:19;9.30;99.90
42715;DHT22;28351;51.480;5.706;2023-05-06T04:21:45;9.30;99.90
42715;DHT22;28351;51.480;5.706;2023-05-06T04:24:11;9.30;99.90
42715;DHT22;28351;51.480;5.706;2023-05-06T04:26:38;9.30;99.90
42715;DHT22;28351;51.480;5.706;2023-05-06T04:29:03;9.30;99.90
42715;DHT22;28351;51.480;5.706;2023-05-06T04:31:29;9.30;99.90
42715;DHT22;28351;51.480;5.706;2023-05-06T04:33:55;9.40;99.90
42715;DHT22;28351;51.480;5.706;2023-05-06T04:36:20;9.40;99.90
42715;DHT22;28351;51.480;5.706;2023-05-06T04:38:46;9.40;99.90
42715;DHT22;28351;51.480;5.706;2023-05-06T04:41:12;9.40;99.90
42715;DHT22;28351;51.480;5.706;2023-05-06T04:43:38;9.40;99.90
42715;DHT22;28351;51.480;5.706;2023-05-06T04:46:04;9.50;99.90
42715;DHT22;28351;51.480;5.706;2023-05-06T04:48:30;9.50;99.90
42715;DHT22;28351;51.480;5.706;2023-05-06T04:50:56;9.50;99.90
42715;DHT22;28351;51.480;5.706;2023-05-06T04:53:22;9.60;99.90
42715;DHT22;28351;51.480;5.706;2023-05-06T04:55:50;9.70;99.90
42715;DHT22;28351;51.480;5.706;2023-05-06T04:58:16;9.70;99.90
42715;DHT22;28351;51.480;5.706;2023-05-06T05:00:44;9.80;99.90
42715;DHT22;28351;51.480;5.706;2023-05-06T05:03:10;9.80;99.90
42715;DHT22;28351;51.480;5.706;2023-05-06T05:05:35;9.90;99.90
42715;DHT22;28351;51.480;5.706;2023-05-06T05:08:01;10.00;99.90
42715;DHT22;28351;51.480;5.706;2023-05-06T05:10:26;10.00;99.90
42715;DHT22;28351;51.480;5.706;2023-05-06T05:12:52;10.10;99.90
42715;DHT22;28351;51.480;5.706;2023-05-06T05:15:19;10.10;99.90
42715;DHT22;28351;51.480;5.706;2023-05-06T05:17:45;10.10;99.90
42715;DHT22;28351;51.480;5.706;2023-05-06T05:20:11;10.10;99.90
42715;DHT22;28351;51.480;5.706;2023-05-06T05:22:36;10.20;99.90
42715;DHT22;28351;51.480;5.706;2023-05-06T05:25:02;10.30;99.90
42715;DHT22;28351;51.480;5.706;2023-05-06T05:27:28;10.40;99.90
42715;DHT22;28351;51.480;5.706;2023-05-06T05:29:54;10.60;99.90
42715;DHT22;28351;51.480;5.706;2023-05-06T05:32:20;10.60;99.90
42715;DHT22;28351;51.480;5.706;2023-05-06T05:34:46;10.70;99.90
42715;DHT22;28351;51.480;5.706;2023-05-06T05:37:11;10.70;99.90
42715;DHT22;28351;51.480;5.706;2023-05-06T05:39:37;10.80;99.90
42715;DHT22;28351;51.480;5.706;2023-05-06T05:42:03;10.80;99.90
42715;DHT22;28351;51.480;5.706;2023-05-06T05:44:29;10.90;99.90
42715;DHT22;28351;51.480;5.706;2023-05-06T05:46:57;11.00;99.90
42715;DHT22;28351;51.480;5.706;2023-05-06T05:49:23;11.10;99.90
42715;DHT22;28351;51.480;5.706;2023-05-06T05:51:49;11.30;99.90
42715;DHT22;28351;51.480;5.706;2023-05-06T05:54:14;11.50;99.90
42715;DHT22;28351;51.480;5.706;2023-05-06T05:56:40;11.70;99.90
42715;DHT22;28351;51.480;5.706;2023-05-06T05:59:06;12.10;99.90
42715;DHT22;28351;51.480;5.706;2023-05-06T06:01:32;12.30;99.90
42715;DHT22;28351;51.480;5.706;2023-05-06T06:03:57;12.60;99.90
42715;DHT22;28351;51.480;5.706;2023-05-06T06:06:24;12.80;99.90
42715;DHT22;28351;51.480;5.706;2023-05-06T06:08:49;12.90;99.90
42715;DHT22;28351;51.480;5.706;2023-05-06T06:11:15;13.00;99.90
42715;DHT22;28351;51.480;5.706;2023-05-06T06:13:44;13.20;99.90
42715;DHT22;28351;51.480;5.706;2023-05-06T06:16:10;13.30;99.90
42715;DHT22;28351;51.480;5.706;2023-05-06T06:18:35;13.30;99.90
42715;DHT22;28351;51.480;5.706;2023-05-06T06:21:01;13.40;99.90
42715;DHT22;28351;51.480;5.706;2023-05-06T06:23:26;13.40;99.90
42715;DHT22;28351;51.480;5.706;2023-05-06T06:25:52;13.60;99.90
42715;DHT22;28351;51.480;5.706;2023-05-06T06:28:18;13.70;99.90
42715;DHT22;28351;51.480;5.706;2023-05-06T06:30:43;13.70;99.90
42715;DHT22;28351;51.480;5.706;2023-05-06T06:33:09;13.70;99.90
42715;DHT22;28351;51.480;5.706;2023-05-06T06:35:34;13.70;99.90
42715;DHT22;28351;51.480;5.706;2023-05-06T06:38:00;13.70;99.90
42715;DHT22;28351;51.480;5.706;2023-05-06T06:40:33;13.70;99.90
42715;DHT22;28351;51.480;5.706;2023-05-06T06:42:58;13.60;99.90
42715;DHT22;28351;51.480;5.706;2023-05-06T06:45:25;13.50;99.90
42715;DHT22;28351;51.480;5.706;2023-05-06T06:47:51;13.60;99.90
42715;DHT22;28351;51.480;5.706;2023-05-06T06:50:16;13.70;99.90
42715;DHT22;28351;51.480;5.706;2023-05-06T06:52:43;13.80;99.90
42715;DHT22;28351;51.480;5.706;2023-05-06T06:55:08;13.90;99.90
42715;DHT22;28351;51.480;5.706;2023-05-06T06:57:38;14.00;99.90
42715;DHT22;28351;51.480;5.706;2023-05-06T07:00:04;14.00;99.90
42715;DHT22;28351;51.480;5.706;2023-05-06T07:02:30;14.00;99.90
42715;DHT22;28351;51.480;5.706;2023-05-06T07:04:58;14.20;99.90
42715;DHT22;28351;51.480;5.706;2023-05-06T07:07:24;14.20;99.90
42715;DHT22;28351;51.480;5.706;2023-05-06T07:09:49;14.40;99.90
42715;DHT22;28351;51.480;5.706;2023-05-06T07:12:15;14.40;99.90
42715;DHT22;28351;51.480;5.706;2023-05-06T07:14:40;14.50;99.90
42715;DHT22;28351;51.480;5.706;2023-05-06T07:17:06;14.60;99.90
42715;DHT22;28351;51.480;5.706;2023-05-06T07:19:32;14.60;99.90
42715;DHT22;28351;51.480;5.706;2023-05-06T07:21:57;14.60;99.90
42715;DHT22;28351;51.480;5.706;2023-05-06T07:24:23;14.70;99.90
42715;DHT22;28351;51.480;5.706;2023-05-06T07:26:49;14.80;99.90
42715;DHT22;28351;51.480;5.706;2023-05-06T07:29:14;15.00;99.90
42715;DHT22;28351;51.480;5.706;2023-05-06T07:31:40;15.10;99.90
42715;DHT22;28351;51.480;5.706;2023-05-06T07:34:06;15.30;99.90
42715;DHT22;28351;51.480;5.706;2023-05-06T07:36:32;15.40;99.90
42715;DHT22;28351;51.480;5.706;2023-05-06T07:39:05;15.50;99.90
42715;DHT22;28351;51.480;5.706;2023-05-06T07:41:30;15.60;99.90
42715;DHT22;28351;51.480;5.706;2023-05-06T07:43:56;15.60;99.90
42715;DHT22;28351;51.480;5.706;2023-05-06T07:46:21;15.60;99.90
42715;DHT22;28351;51.480;5.706;2023-05-06T07:48:47;15.60;99.90
42715;DHT22;28351;51.480;5.706;2023-05-06T07:51:14;15.60;99.90
42715;DHT22;28351;51.480;5.706;2023-05-06T07:53:40;15.60;99.90
42715;DHT22;28351;51.480;5.706;2023-05-06T07:56:06;15.70;99.90
42715;DHT22;28351;51.480;5.706;2023-05-06T07:58:31;15.80;99.90
42715;DHT22;28351;51.480;5.706;2023-05-06T08:00:57;15.90;99.90
42715;DHT22;28351;51.480;5.706;2023-05-06T08:03:24;16.00;99.90
42715;DHT22;28351;51.480;5.706;2023-05-06T08:05:50;16.10;99.90
42715;DHT22;28351;51.480;5.706;2023-05-06T08:08:17;16.20;99.90
42715;DHT22;28351;51.480;5.706;2023-05-06T08:10:43;16.30;99.90
42715;DHT22;28351;51.480;5.706;2023-05-06T08:13:08;16.50;99.90
42715;DHT22;28351;51.480;5.706;2023-05-06T08:15:34;16.50;99.90
42715;DHT22;28351;51.480;5.706;2023-05-06T08:18:00;16.60;99.90
42715;DHT22;28351;51.480;5.706;2023-05-06T08:20:26;16.70;99.90
42715;DHT22;28351;51.480;5.706;2023-05-06T08:22:51;16.80;99.90
42715;DHT22;28351;51.480;5.706;2023-05-06T08:25:17;16.80;99.90
42715;DHT22;28351;51.480;5.706;2023-05-06T08:27:43;16.90;99.90
42715;DHT22;28351;51.480;5.706;2023-05-06T08:30:09;17.00;99.90
42715;DHT22;28351;51.480;5.706;2023-05-06T08:32:36;17.10;99.90
42715;DHT22;28351;51.480;5.706;2023-05-06T08:35:05;17.10;99.90
42715;DHT22;28351;51.480;5.706;2023-05-06T08:37:31;17.20;99.90
42715;DHT22;28351;51.480;5.706;2023-05-06T08:39:57;17.30;99.90
42715;DHT22;28351;51.480;5.706;2023-05-06T08:42:24;17.30;99.90
42715;DHT22;28351;51.480;5.706;2023-05-06T08:44:51;17.40;99.90
42715;DHT22;28351;51.480;5.706;2023-05-06T08:47:18;17.50;99.90
42715;DHT22;28351;51.480;5.706;2023-05-06T08:49:44;17.60;99.90
42715;DHT22;28351;51.480;5.706;2023-05-06T08:52:10;17.70;99.90
42715;DHT22;28351;51.480;5.706;2023-05-06T08:54:37;17.80;99.90
42715;DHT22;28351;51.480;5.706;2023-05-06T08:57:10;18.10;99.90
42715;DHT22;28351;51.480;5.706;2023-05-06T08:59:36;18.00;99.90
42715;DHT22;28351;51.480;5.706;2023-05-06T09:02:03;18.10;99.90
42715;DHT22;28351;51.480;5.706;2023-05-06T09:04:29;18.20;99.90
42715;DHT22;28351;51.480;5.706;2023-05-06T09:06:57;18.30;99.90
42715;DHT22;28351;51.480;5.706;2023-05-06T09:09:23;18.30;99.90
42715;DHT22;28351;51.480;5.706;2023-05-06T09:11:49;18.50;99.90
42715;DHT22;28351;51.480;5.706;2023-05-06T09:14:20;18.60;99.90
42715;DHT22;28351;51.480;5.706;2023-05-06T09:16:49;18.70;99.90
42715;DHT22;28351;51.480;5.706;2023-05-06T09:19:16;18.90;99.90
42715;DHT22;28351;51.480;5.706;2023-05-06T09:21:45;18.90;99.90
42715;DHT22;28351;51.480;5.706;2023-05-06T09:24:13;19.10;99.90
42715;DHT22;28351;51.480;5.706;2023-05-06T09:26:40;19.20;99.90
42715;DHT22;28351;51.480;5.706;2023-05-06T09:29:06;19.30;99.90
42715;DHT22;28351;51.480;5.706;2023-05-06T09:31:32;19.30;99.90
42715;DHT22;28351;51.480;5.706;2023-05-06T09:33:59;19.30;99.90
42715;DHT22;28351;51.480;5.706;2023-05-06T09:36:26;19.20;99.90
42715;DHT22;28351;51.480;5.706;2023-05-06T09:38:54;19.30;99.90
42715;DHT22;28351;51.480;5.706;2023-05-06T09:41:22;19.40;99.90
42715;DHT22;28351;51.480;5.706;2023-05-06T09:43:51;19.60;99.90
42715;DHT22;28351;51.480;5.706;2023-05-06T09:46:17;19.60;99.90
42715;DHT22;28351;51.480;5.706;2023-05-06T09:48:44;19.50;99.90
42715;DHT22;28351;51.480;5.706;2023-05-06T09:51:11;19.70;99.90
42715;DHT22;28351;51.480;5.706;2023-05-06T09:53:37;19.80;99.90
42715;DHT22;28351;51.480;5.706;2023-05-06T09:56:04;19.70;99.90
42715;DHT22;28351;51.480;5.706;2023-05-06T09:58:37;20.10;99.90
42715;DHT22;28351;51.480;5.706;2023-05-06T10:01:06;20.10;99.80
42715;DHT22;28351;51.480;5.706;2023-05-06T10:03:34;20.40;99.60
42715;DHT22;28351;51.480;5.706;2023-05-06T10:06:01;20.60;99.30
42715;DHT22;28351;51.480;5.706;2023-05-06T10:08:27;20.80;99.60
42715;DHT22;28351;51.480;5.706;2023-05-06T10:10:53;21.20;99.90
42715;DHT22;28351;51.480;5.706;2023-05-06T10:13:20;21.30;98.80
42715;DHT22;28351;51.480;5.706;2023-05-06T10:15:47;21.30;98.90
42715;DHT22;28351;51.480;5.706;2023-05-06T10:18:18;21.50;98.00
42715;DHT22;28351;51.480;5.706;2023-05-06T10:20:45;21.80;98.70
42715;DHT22;28351;51.480;5.706;2023-05-06T10:23:30;21.90;97.20
42715;DHT22;28351;51.480;5.706;2023-05-06T10:26:03;22.00;97.10
42715;DHT22;28351;51.480;5.706;2023-05-06T10:28:30;22.10;95.90
42715;DHT22;28351;51.480;5.706;2023-05-06T10:30:58;22.40;95.40
42715;DHT22;28351;51.480;5.706;2023-05-06T10:33:25;22.20;95.80
42715;DHT22;28351;51.480;5.706;2023-05-06T10:38:27;23.40;95.50
42715;DHT22;28351;51.480;5.706;2023-05-06T10:40:54;23.20;94.70
42715;DHT22;28351;51.480;5.706;2023-05-06T10:43:28;23.00;94.50
42715;DHT22;28351;51.480;5.706;2023-05-06T10:45:59;22.70;94.90
42715;DHT22;28351;51.480;5.706;2023-05-06T10:48:26;22.80;95.40
42715;DHT22;28351;51.480;5.706;2023-05-06T10:54:10;23.40;95.60
42715;DHT22;28351;51.480;5.706;2023-05-06T10:59:16;24.50;94.70
42715;DHT22;28351;51.480;5.706;2023-05-06T11:04:28;24.60;93.70
42715;DHT22;28351;51.480;5.706;2023-05-06T11:09:58;24.40;94.70
42715;DHT22;28351;51.480;5.706;2023-05-06T11:15:25;24.40;94.10
42715;DHT22;28351;51.480;5.706;2023-05-06T11:17:52;24.60;94.00
42715;DHT22;28351;51.480;5.706;2023-05-06T11:20:25;24.90;93.10
42715;DHT22;28351;51.480;5.706;2023-05-06T11:22:52;24.60;93.20
42715;DHT22;28351;51.480;5.706;2023-05-06T11:25:39;24.00;93.70
42715;DHT22;28351;51.480;5.706;2023-05-06T11:28:09;23.90;93.90
42715;DHT22;28351;51.480;5.706;2023-05-06T11:30:39;24.10;94.00
42715;DHT22;28351;51.480;5.706;2023-05-06T11:33:07;24.30;94.60
42715;DHT22;28351;51.480;5.706;2023-05-06T11:35:36;24.40;94.80
42715;DHT22;28351;51.480;5.706;2023-05-06T11:38:02;25.60;94.00
42715;DHT22;28351;51.480;5.706;2023-05-06T11:40:33;26.60;92.90
42715;DHT22;28351;51.480;5.706;2023-05-06T11:43:19;27.60;91.70
42715;DHT22;28351;51.480;5.706;2023-05-06T11:45:46;28.10;91.80
42715;DHT22;28351;51.480;5.706;2023-05-06T11:48:16;28.80;92.90
42715;DHT22;28351;51.480;5.706;2023-05-06T11:50:49;29.00;90.00
42715;DHT22;28351;51.480;5.706;2023-05-06T11:53:19;29.20;90.00
42715;DHT22;28351;51.480;5.706;2023-05-06T11:55:46;28.80;91.00
42715;DHT22;28351;51.480;5.706;2023-05-06T11:58:14;29.10;91.30
42715;DHT22;28351;51.480;5.706;2023-05-06T12:00:47;28.90;90.50
42715;DHT22;28351;51.480;5.706;2023-05-06T12:03:17;27.80;90.40
42715;DHT22;28351;51.480;5.706;2023-05-06T12:05:43;27.60;91.20
42715;DHT22;28351;51.480;5.706;2023-05-06T12:08:10;26.70;91.20
42715;DHT22;28351;51.480;5.706;2023-05-06T12:10:36;26.30;91.30
42715;DHT22;28351;51.480;5.706;2023-05-06T12:13:05;25.70;91.80
42715;DHT22;28351;51.480;5.706;2023-05-06T12:15:32;25.90;90.90
42715;DHT22;28351;51.480;5.706;2023-05-06T12:17:58;25.80;91.50
42715;DHT22;28351;51.480;5.706;2023-05-06T12:20:24;26.70;91.40
42715;DHT22;28351;51.480;5.706;2023-05-06T12:23:11;27.70;90.20
42715;DHT22;28351;51.480;5.706;2023-05-06T12:25:41;27.90;90.50
42715;DHT22;28351;51.480;5.706;2023-05-06T12:28:17;28.50;89.40
42715;DHT22;28351;51.480;5.706;2023-05-06T12:30:43;28.50;90.10
42715;DHT22;28351;51.480;5.706;2023-05-06T12:33:10;28.20;90.20
42715;DHT22;28351;51.480;5.706;2023-05-06T12:35:37;27.70;90.30
42715;DHT22;28351;51.480;5.706;2023-05-06T12:38:14;27.20;90.40
42715;DHT22;28351;51.480;5.706;2023-05-06T12:40:41;27.00;90.40
42715;DHT22;28351;51.480;5.706;2023-05-06T12:43:07;27.50;91.10
42715;DHT22;28351;51.480;5.706;2023-05-06T12:45:33;27.80;90.80
42715;DHT22;28351;51.480;5.706;2023-05-06T12:48:00;28.20;89.00
42715;DHT22;28351;51.480;5.706;2023-05-06T12:50:52;28.10;88.80
42715;DHT22;28351;51.480;5.706;2023-05-06T12:53:30;27.90;90.00
42715;DHT22;28351;51.480;5.706;2023-05-06T12:55:56;27.50;90.50
42715;DHT22;28351;51.480;5.706;2023-05-06T12:58:22;27.10;90.30
42715;DHT22;28351;51.480;5.706;2023-05-06T13:00:51;27.00;90.40
42715;DHT22;28351;51.480;5.706;2023-05-06T13:03:16;27.10;91.00
42715;DHT22;28351;51.480;5.706;2023-05-06T13:05:43;27.00;90.10
42715;DHT22;28351;51.480;5.706;2023-05-06T13:08:22;27.00;90.00
42715;DHT22;28351;51.480;5.706;2023-05-06T13:11:03;27.00;90.00
42715;DHT22;28351;51.480;5.706;2023-05-06T13:13:57;26.60;90.30
42715;DHT22;28351;51.480;5.706;2023-05-06T13:16:22;26.10;90.30
42715;DHT22;28351;51.480;5.706;2023-05-06T13:18:48;26.20;91.10
42715;DHT22;28351;51.480;5.706;2023-05-06T13:21:14;26.50;91.40
42715;DHT22;28351;51.480;5.706;2023-05-06T13:23:45;27.00;90.30
42715;DHT22;28351;51.480;5.706;2023-05-06T13:26:17;27.00;90.40
42715;DHT22;28351;51.480;5.706;2023-05-06T13:28:43;26.50;91.00
42715;DHT22;28351;51.480;5.706;2023-05-06T13:33:54;26.30;90.70
42715;DHT22;28351;51.480;5.706;2023-05-06T13:36:21;26.50;90.70
42715;DHT22;28351;51.480;5.706;2023-05-06T13:38:47;26.90;90.70
42715;DHT22;28351;51.480;5.706;2023-05-06T13:41:13;27.10;90.00
42715;DHT22;28351;51.480;5.706;2023-05-06T13:43:38;27.00;90.20
42715;DHT22;28351;51.480;5.706;2023-05-06T13:46:04;26.70;90.00
42715;DHT22;28351;51.480;5.706;2023-05-06T13:48:30;26.30;89.90
42715;DHT22;28351;51.480;5.706;2023-05-06T13:50:55;25.70;90.00
42715;DHT22;28351;51.480;5.706;2023-05-06T13:53:21;25.20;90.70
42715;DHT22;28351;51.480;5.706;2023-05-06T13:55:47;25.40;91.20
42715;DHT22;28351;51.480;5.706;2023-05-06T13:58:12;25.60;91.90
42715;DHT22;28351;51.480;5.706;2023-05-06T14:00:38;25.40;90.60
42715;DHT22;28351;51.480;5.706;2023-05-06T14:03:06;25.80;91.30
42715;DHT22;28351;51.480;5.706;2023-05-06T14:05:32;25.90;90.90
42715;DHT22;28351;51.480;5.706;2023-05-06T14:07:57;26.30;90.50
42715;DHT22;28351;51.480;5.706;2023-05-06T14:10:25;26.70;90.30
42715;DHT22;28351;51.480;5.706;2023-05-06T14:12:52;26.70;91.10
42715;DHT22;28351;51.480;5.706;2023-05-06T14:15:17;26.30;89.20
42715;DHT22;28351;51.480;5.706;2023-05-06T14:17:43;25.80;90.00
42715;DHT22;28351;51.480;5.706;2023-05-06T14:20:12;25.20;90.40
42715;DHT22;28351;51.480;5.706;2023-05-06T14:23:07;24.60;90.90
42715;DHT22;28351;51.480;5.706;2023-05-06T14:25:32;24.30;91.90
42715;DHT22;28351;51.480;5.706;2023-05-06T14:27:58;24.30;91.90
42715;DHT22;28351;51.480;5.706;2023-05-06T14:30:24;24.40;91.40
42715;DHT22;28351;51.480;5.706;2023-05-06T14:32:50;24.40;91.70
42715;DHT22;28351;51.480;5.706;2023-05-06T14:35:16;24.60;91.80
42715;DHT22;28351;51.480;5.706;2023-05-06T14:37:42;24.40;91.70
42715;DHT22;28351;51.480;5.706;2023-05-06T14:40:08;24.50;91.80
42715;DHT22;28351;51.480;5.706;2023-05-06T14:42:34;24.30;91.90
42715;DHT22;28351;51.480;5.706;2023-05-06T14:45:00;24.20;92.00
42715;DHT22;28351;51.480;5.706;2023-05-06T14:47:26;24.10;92.00
42715;DHT22;28351;51.480;5.706;2023-05-06T14:49:51;23.90;92.00
42715;DHT22;28351;51.480;5.706;2023-05-06T14:52:17;24.00;92.50
42715;DHT22;28351;51.480;5.706;2023-05-06T14:54:42;24.10;93.00
42715;DHT22;28351;51.480;5.706;2023-05-06T14:57:10;24.10;92.20
42715;DHT22;28351;51.480;5.706;2023-05-06T14:59:36;24.10;92.10
42715;DHT22;28351;51.480;5.706;2023-05-06T15:02:03;24.10;92.60
42715;DHT22;28351;51.480;5.706;2023-05-06T15:04:31;24.10;92.40
42715;DHT22;28351;51.480;5.706;2023-05-06T15:06:56;23.90;92.40
42715;DHT22;28351;51.480;5.706;2023-05-06T15:09:23;23.90;92.30
42715;DHT22;28351;51.480;5.706;2023-05-06T15:11:49;24.00;92.60
42715;DHT22;28351;51.480;5.706;2023-05-06T15:14:14;23.90;92.30
42715;DHT22;28351;51.480;5.706;2023-05-06T15:16:40;23.90;92.50
42715;DHT22;28351;51.480;5.706;2023-05-06T15:19:06;24.00;92.30
42715;DHT22;28351;51.480;5.706;2023-05-06T15:21:32;24.00;92.70
42715;DHT22;28351;51.480;5.706;2023-05-06T15:24:11;23.90;92.30
42715;DHT22;28351;51.480;5.706;2023-05-06T15:26:36;23.80;92.30
42715;DHT22;28351;51.480;5.706;2023-05-06T15:29:02;23.60;92.70
42715;DHT22;28351;51.480;5.706;2023-05-06T15:31:30;23.50;92.80
42715;DHT22;28351;51.480;5.706;2023-05-06T15:33:56;23.20;92.80
42715;DHT22;28351;51.480;5.706;2023-05-06T15:36:22;23.10;92.60
42715;DHT22;28351;51.480;5.706;2023-05-06T15:38:55;22.90;93.00
42715;DHT22;28351;51.480;5.706;2023-05-06T15:41:26;22.70;93.40
42715;DHT22;28351;51.480;5.706;2023-05-06T15:43:53;22.40;94.00
42715;DHT22;28351;51.480;5.706;2023-05-06T15:46:19;22.10;93.80
42715;DHT22;28351;51.480;5.706;2023-05-06T15:48:45;22.10;94.30
42715;DHT22;28351;51.480;5.706;2023-05-06T15:51:10;21.60;96.90
42715;DHT22;28351;51.480;5.706;2023-05-06T15:53:41;21.00;98.50
42715;DHT22;28351;51.480;5.706;2023-05-06T15:56:08;20.10;99.90
42715;DHT22;28351;51.480;5.706;2023-05-06T15:58:35;19.10;99.90
42715;DHT22;28351;51.480;5.706;2023-05-06T16:01:02;18.20;99.90
42715;DHT22;28351;51.480;5.706;2023-05-06T16:03:27;17.60;99.90
42715;DHT22;28351;51.480;5.706;2023-05-06T16:05:55;17.10;99.90